Time;durP1;ratioP1;P1;durP2;ratioP2;P2;SDS_P1;SDS_P2;PMS_P1;PMS_P2;Temp;Humidity;BMP_temperature;BMP_pressure;BME280_temperature;BME280_humidity;BME280_pressure;Samples;Min_cycle;Max_cycle;Signal;HPM_P1;HPM_P2
2023/09/05 00:02:15;;;;;;;0.95;0.85;;;;;;;;;;6098009;23;20070;-74
2023/09/05 00:04:46;;;;;;;1.00;1.00;;;;;;;;;;6098103;23;20037;-74
2023/09/05 00:07:12;;;;;;;1.38;1.27;;;;;;;;;;6098606;23;20067;-73
2023/09/05 00:09:39;;;;;;;1.70;1.00;;;;;;;;;;6098583;23;20066;-73
2023/09/05 00:12:06;;;;;;;1.70;1.17;;;25.30;71.40;;;;;;6098146;23;20002;-72
2023/09/05 00:14:33;;;;;;;1.13;1.02;;;;;;;;;;6098206;23;20335;-72
2023/09/05 00:16:59;;;;;;;0.80;0.80;;;;;;;;;;6098379;23;20010;-72
2023/09/05 00:19:26;;;;;;;1.23;1.13;;;;;;;;;;6098020;23;20002;-72
2023/09/05 00:21:52;;;;;;;0.90;0.90;;;;;;;;;;6099100;23;20050;-72
2023/09/05 00:24:36;;;;;;;0.90;0.90;;;25.20;65.00;;;;;;6097998;23;20005;-72
2023/09/05 00:27:05;;;;;;;1.17;0.90;;;25.20;70.60;;;;;;6098046;23;20063;-72
2023/09/05 00:29:31;;;;;;;1.20;1.10;;;;;;;;;;6098381;23;19999;-72
2023/09/05 00:31:59;;;;;;;1.42;1.33;;;;;;;;;;6098327;23;20375;-72
2023/09/05 00:34:31;;;;;;;1.35;1.25;;;25.20;65.00;;;;;;6098031;23;20086;-72
2023/09/05 00:36:58;;;;;;;0.90;0.82;;;;;;;;;;6097983;23;20005;-72
2023/09/05 00:39:26;;;;;;;1.00;1.00;;;;;;;;;;6098157;23;20073;-72
2023/09/05 00:41:54;;;;;;;1.10;1.00;;;;;;;;;;6097243;23;20013;-72
2023/09/05 00:44:20;;;;;;;1.20;1.10;;;;;;;;;;6096162;23;20036;-72
2023/09/05 00:46:47;;;;;;;1.27;1.17;;;;;;;;;;6096609;23;20378;-72
2023/09/05 00:49:17;;;;;;;1.10;1.00;;;25.10;69.20;;;;;;6096562;23;20077;-72
2023/09/05 00:51:49;;;;;;;1.83;1.00;;;25.00;70.20;;;;;;6097233;23;20064;-72
2023/09/05 00:54:15;;;;;;;1.05;0.95;;;;;;;;;;6096583;23;20010;-72
2023/09/05 00:56:41;;;;;;;0.90;0.90;;;;;;;;;;6096190;23;20457;-72
2023/09/05 00:59:09;;;;;;;1.25;1.10;;;24.50;70.60;;;;;;6096534;23;20002;-72
2023/09/05 01:01:36;;;;;;;0.85;0.85;;;;;;;;;;6096103;23;20009;-72
2023/09/05 01:04:02;;;;;;;1.48;1.25;;;;;;;;;;6096256;23;20006;-74
2023/09/05 01:06:51;;;;;;;1.10;1.00;;;25.00;65.30;;;;;;6095995;23;20011;-74
2023/09/05 01:09:57;;;;;;;0.67;0.67;;;25.00;65.20;;;;;;6076025;23;20010;-74
2023/09/05 01:12:23;;;;;;;1.13;1.13;;;;;;;;;;6055140;23;20378;-74
2023/09/05 01:14:50;;;;;;;1.13;1.02;;;;;;;;;;6095985;23;20005;-74
2023/09/05 01:17:16;;;;;;;1.30;1.20;;;;;;;;;;6095919;23;20077;-73
2023/09/05 01:19:43;;;;;;;1.27;1.17;;;;;;;;;;6096911;23;20007;-71
2023/09/05 01:22:49;;;;;;;1.20;1.10;;;24.90;65.50;;;;;;6095937;23;20006;-71
2023/09/05 01:25:15;;;;;;;1.02;0.93;;;;;;;;;;6105795;23;20026;-72
2023/09/05 01:27:41;;;;;;;2.70;0.90;;;;;;;;;;6105610;23;20089;-72
2023/09/05 01:30:09;;;;;;;1.00;0.90;;;24.90;71.20;;;;;;6105809;23;20005;-72
2023/09/05 01:32:35;;;;;;;1.10;0.98;;;;;;;;;;6096241;23;20057;-72
2023/09/05 01:35:01;;;;;;;0.80;0.80;;;;;;;;;;6105680;23;20018;-72
2023/09/05 01:37:27;;;;;;;1.27;1.13;;;;;;;;;;6105632;23;20125;-72
2023/09/05 01:39:53;;;;;;;0.77;0.77;;;;;;;;;;6105620;23;20038;-73
2023/09/05 01:42:19;;;;;;;0.85;0.85;;;;;;;;;;6095757;23;20431;-72
2023/09/05 01:44:46;;;;;;;1.23;1.13;;;;;;;;;;6096083;23;20005;-72
2023/09/05 01:47:12;;;;;;;0.98;0.90;;;;;;;;;;6096114;23;20010;-72
2023/09/05 01:49:39;;;;;;;1.08;1.08;;;;;;;;;;6095965;23;20066;-72
2023/09/05 01:52:05;;;;;;;0.95;0.95;;;;;;;;;;6096012;23;20002;-72
2023/09/05 01:54:32;;;;;;;1.23;1.13;;;;;;;;;;6095922;23;20009;-72
2023/09/05 01:56:58;;;;;;;1.58;1.00;;;;;;;;;;6096075;23;20355;-73
2023/09/05 01:59:25;;;;;;;0.90;0.90;;;;;;;;;;6095951;23;20002;-74
2023/09/05 02:01:51;;;;;;;1.00;0.90;;;;;;;;;;6071248;23;20438;-74
2023/09/05 02:04:18;;;;;;;1.23;1.13;;;;;;;;;;6095940;23;20092;-74
2023/09/05 02:06:44;;;;;;;1.02;0.82;;;;;;;;;;6095757;23;20017;-74
2023/09/05 02:09:11;;;;;;;1.40;1.10;;;;;;;;;;6095405;23;20002;-74
2023/09/05 02:11:37;;;;;;;1.10;1.00;;;;;;;;;;6095681;23;20007;-74
2023/09/05 02:14:05;;;;;;;0.98;0.98;;;;;;;;;;6095482;23;20065;-75
2023/09/05 02:16:33;;;;;;;0.90;0.90;;;;;;;;;;6095972;23;20026;-72
2023/09/05 02:18:59;;;;;;;1.30;1.15;;;;;;;;;;6095891;23;19998;-72
2023/09/05 02:21:26;;;;;;;1.38;1.08;;;;;;;;;;6095766;23;20076;-73
2023/09/05 02:23:52;;;;;;;1.08;0.98;;;;;;;;;;6095803;23;20025;-72
2023/09/05 02:26:19;;;;;;;1.05;0.95;;;;;;;;;;6095819;23;20046;-72
2023/09/05 02:28:45;;;;;;;0.98;0.95;;;;;;;;;;6095574;23;20030;-75
2023/09/05 02:31:12;;;;;;;2.45;1.30;;;;;;;;;;6095826;23;20341;-74
2023/09/05 02:33:38;;;;;;;1.23;1.10;;;;;;;;;;6095396;23;20418;-74
2023/09/05 02:36:08;;;;;;;1.13;1.02;;;24.60;65.80;;;;;;6095396;23;20017;-74
2023/09/05 02:38:36;;;;;;;1.38;1.27;;;;;;;;;;6095577;23;20009;-73
2023/09/05 02:41:02;;;;;;;1.00;0.90;;;;;;;;;;6095286;23;20002;-74
2023/09/05 02:43:29;;;;;;;1.52;1.40;;;;;;;;;;6095606;23;20078;-74
2023/09/05 02:45:55;;;;;;;0.88;0.80;;;;;;;;;;6095981;23;20003;-72
2023/09/05 02:48:22;;;;;;;1.20;1.10;;;;;;;;;;6095550;23;20002;-72
2023/09/05 02:50:48;;;;;;;0.90;0.70;;;;;;;;;;6095401;23;20022;-71
2023/09/05 02:53:15;;;;;;;1.10;1.00;;;;;;;;;;6095511;23;20058;-72
2023/09/05 02:55:44;;;;;;;2.00;1.30;;;24.50;66.00;;;;;;6095690;23;20078;-72
2023/09/05 02:58:10;;;;;;;1.80;1.20;;;;;;;;;;6095691;23;20333;-74
2023/09/05 03:00:37;;;;;;;1.17;0.98;;;;;;;;;;6095288;23;20010;-74
2023/09/05 03:03:04;;;;;;;2.22;1.35;;;;;;;;;;6094954;23;20673;-73
2023/09/05 03:05:31;;;;;;;1.85;1.17;;;;;;;;;;6094801;23;20003;-74
2023/09/05 03:07:57;;;;;;;1.10;1.00;;;;;;;;;;6070214;23;20094;-73
2023/09/05 03:10:24;;;;;;;1.20;0.95;;;;;;;;;;6095418;23;20335;-73
2023/09/05 03:12:50;;;;;;;1.30;1.08;;;;;;;;;;6095668;23;20002;-72
2023/09/05 03:15:18;;;;;;;1.00;0.82;;;;;;;;;;6095087;23;20006;-73
2023/09/05 03:17:45;;;;;;;1.50;1.15;;;;;;;;;;6095116;23;20008;-71
2023/09/05 03:20:15;;;;;;;1.15;0.93;;;;;;;;;;6095029;23;20457;-71
2023/09/05 03:22:42;;;;;;;1.45;1.17;;;;;;;;;;6095448;23;20002;-72
2023/09/05 03:25:08;;;;;;;1.77;1.00;;;;;;;;;;6095490;23;19998;-74
2023/09/05 03:27:35;;;;;;;1.00;0.90;;;;;;;;;;6095228;23;20059;-74
2023/09/05 03:30:01;;;;;;;0.95;0.85;;;;;;;;;;6095351;23;20060;-74
2023/09/05 03:32:28;;;;;;;0.93;0.93;;;;;;;;;;6095360;23;20029;-73
2023/09/05 03:34:55;;;;;;;1.65;1.20;;;;;;;;;;6095327;23;20422;-73
2023/09/05 03:37:22;;;;;;;1.30;1.20;;;;;;;;;;6095401;23;20314;-73
2023/09/05 03:39:49;;;;;;;1.35;1.23;;;24.20;71.80;;;;;;6095050;23;20055;-73
2023/09/05 03:42:16;;;;;;;1.30;1.00;;;;;;;;;;6095974;23;20035;-71
2023/09/05 03:44:43;;;;;;;1.55;1.20;;;;;;;;;;6095415;23;20022;-72
2023/09/05 03:47:09;;;;;;;1.40;1.30;;;;;;;;;;6095331;23;20389;-72
2023/09/05 03:49:35;;;;;;;1.20;1.10;;;;;;;;;;6104768;23;19994;-72
2023/09/05 03:52:01;;;;;;;1.40;1.20;;;;;;;;;;6104805;23;20002;-71
2023/09/05 03:54:27;;;;;;;1.50;1.40;;;;;;;;;;6104744;23;20085;-74
2023/09/05 03:56:53;;;;;;;2.08;1.90;;;;;;;;;;6104697;23;20392;-73
2023/09/05 03:59:20;;;;;;;2.40;2.20;;;24.20;69.30;;;;;;6094833;23;20002;-74
2023/09/05 04:01:49;;;;;;;3.42;3.15;;;24.20;66.40;;;;;;6094867;23;20196;-73
2023/09/05 04:04:16;;;;;;;3.60;3.30;;;;;;;;;;6095216;23;20025;-74
2023/09/05 04:06:42;;;;;;;4.85;4.55;;;;;;;;;;6094613;23;20053;-73
2023/09/05 04:09:09;;;;;;;6.07;5.68;;;;;;;;;;6095117;23;19999;-75
2023/09/05 04:11:35;;;;;;;7.50;6.90;;;;;;;;;;6095356;23;20006;-75
2023/09/05 04:14:01;;;;;;;9.40;8.60;;;;;;;;;;6104578;23;19999;-75
2023/09/05 04:16:27;;;;;;;10.73;9.93;;;;;;;;;;6104638;23;20018;-74
2023/09/05 04:18:54;;;;;;;12.93;11.93;;;;;;;;;;6096484;23;20010;-74
2023/09/05 04:21:20;;;;;;;13.93;12.82;;;;;;;;;;6097029;23;20010;-74
2023/09/05 04:23:47;;;;;;;15.07;13.98;;;;;;;;;;6096995;23;20002;-74
2023/09/05 04:26:14;;;;;;;15.32;14.13;;;;;;;;;;6096842;23;20055;-73
2023/09/05 04:28:41;;;;;;;17.92;16.48;;;;;;;;;;6096494;23;20010;-72
2023/09/05 04:31:07;;;;;;;19.92;18.25;;;;;;;;;;6096459;23;20013;-72
2023/09/05 04:33:37;;;;;;;22.00;20.20;;;;;;;;;;6106305;23;20077;-73
2023/09/05 04:36:06;;;;;;;23.23;21.23;;;24.00;69.40;;;;;;6106359;23;20363;-73
2023/09/05 04:38:32;;;;;;;22.35;20.35;;;;;;;;;;6106767;23;19999;-71
2023/09/05 04:41:01;;;;;;;22.50;20.60;;;24.00;67.20;;;;;;6106162;23;20057;-71
2023/09/05 04:43:27;;;;;;;21.85;19.95;;;;;;;;;;6106164;23;20081;-71
2023/09/05 04:45:57;;;;;;;22.90;20.95;;;24.00;71.80;;;;;;6106123;23;19998;-71
2023/09/05 04:48:24;;;;;;;23.15;21.15;;;24.00;70.40;;;;;;6106048;23;20398;-71
2023/09/05 04:50:50;;;;;;;23.33;21.17;;;;;;;;;;6106208;23;20311;-72
2023/09/05 04:53:16;;;;;;;21.38;19.50;;;;;;;;;;6106132;23;20022;-72
2023/09/05 04:55:42;;;;;;;21.05;19.17;;;;;;;;;;6105992;23;20001;-74
2023/09/05 04:58:09;;;;;;;20.92;19.02;;;23.30;68.80;;;;;;6105995;23;20022;-72
2023/09/05 05:00:35;;;;;;;20.88;18.85;;;;;;;;;;6105950;23;20062;-72
2023/09/05 05:03:01;;;;;;;20.52;18.65;;;;;;;;;;6095295;23;20014;-72
2023/09/05 05:05:27;;;;;;;19.08;17.38;;;;;;;;;;6105894;23;19998;-71
2023/09/05 05:07:53;;;;;;;17.23;15.73;;;;;;;;;;6106388;23;20148;-73
2023/09/05 05:10:19;;;;;;;17.10;15.55;;;;;;;;;;6105966;23;20395;-74
2023/09/05 05:12:45;;;;;;;16.63;15.13;;;;;;;;;;6106005;23;20002;-73
2023/09/05 05:15:11;;;;;;;15.93;14.45;;;;;;;;;;6106001;23;20464;-77
2023/09/05 05:17:38;;;;;;;15.82;14.43;;;;;;;;;;6096609;23;20008;-73
2023/09/05 05:20:05;;;;;;;15.00;13.70;;;;;;;;;;6096261;23;20003;-73
2023/09/05 05:22:31;;;;;;;13.93;12.63;;;;;;;;;;6095858;23;19998;-73
2023/09/05 05:24:58;;;;;;;13.30;12.10;;;;;;;;;;6105554;23;19999;-73
2023/09/05 05:27:24;;;;;;;13.90;12.68;;;;;;;;;;6105471;23;20092;-72
2023/09/05 05:29:50;;;;;;;13.05;11.75;;;;;;;;;;6105330;23;20006;-73
2023/09/05 05:32:16;;;;;;;12.02;10.90;;;;;;;;;;6105535;23;20014;-73
2023/09/05 05:34:42;;;;;;;11.68;10.68;;;;;;;;;;6105445;23;20461;-73
2023/09/05 05:37:08;;;;;;;12.27;11.07;;;;;;;;;;6106074;23;19999;-73
2023/09/05 05:39:34;;;;;;;11.18;10.18;;;;;;;;;;6105419;23;20003;-72
2023/09/05 05:42:00;;;;;;;10.40;9.40;;;;;;;;;;6105446;23;19999;-72
2023/09/05 05:44:26;;;;;;;10.23;9.30;;;;;;;;;;6105502;23;20557;-72
2023/09/05 05:46:56;;;;;;;10.77;9.00;;;;;;;;;;6105323;23;20089;-71
2023/09/05 05:49:23;;;;;;;9.18;8.38;;;;;;;;;;6105468;23;20009;-71
2023/09/05 05:51:50;;;;;;;8.68;7.85;;;;;;;;;;6095493;23;20007;-72
2023/09/05 05:54:16;;;;;;;8.23;7.45;;;;;;;;;;6105293;23;20162;-71
2023/09/05 05:56:43;;;;;;;7.75;7.05;;;;;;;;;;6095804;23;20010;-71
2023/09/05 05:59:09;;;;;;;8.18;7.47;;;;;;;;;;6095669;23;20003;-71
2023/09/05 06:01:35;;;;;;;8.10;7.25;;;;;;;;;;6095134;23;20002;-71
2023/09/05 06:04:02;;;;;;;6.82;6.30;;;;;;;;;;6095965;23;20070;-72
2023/09/05 06:06:28;;;;;;;6.60;6.00;;;;;;;;;;6095157;23;20029;-71
2023/09/05 06:08:55;;;;;;;5.70;5.20;;;;;;;;;;6070566;23;20002;-73
2023/09/05 06:11:21;;;;;;;6.35;5.78;;;;;;;;;;6105070;23;19999;-72
2023/09/05 06:13:47;;;;;;;5.65;5.15;;;;;;;;;;6105069;23;19998;-71
2023/09/05 06:16:13;;;;;;;5.25;4.85;;;;;;;;;;6105089;23;20001;-73
2023/09/05 06:18:39;;;;;;;4.90;4.50;;;;;;;;;;6105117;23;19998;-74
2023/09/05 06:21:06;;;;;;;4.85;4.43;;;;;;;;;;6104931;23;19998;-74
2023/09/05 06:23:35;;;;;;;4.78;4.38;;;;;;;;;;6095630;23;20081;-73
2023/09/05 06:26:01;;;;;;;4.28;3.90;;;;;;;;;;6104967;23;20007;-72
2023/09/05 06:28:27;;;;;;;4.53;4.13;;;;;;;;;;6104947;23;20007;-74
2023/09/05 06:31:01;;;;;;;3.83;3.53;;;23.70;73.00;;;;;;6105031;23;20057;-72
2023/09/05 06:33:28;;;;;;;3.88;3.58;;;;;;;;;;6105073;23;20474;-73
2023/09/05 06:35:54;;;;;;;3.80;3.35;;;;;;;;;;6095714;23;20093;-74
2023/09/05 06:38:23;;;;;;;3.30;3.10;;;;;;;;;;6104944;23;20088;-74
2023/09/05 06:40:49;;;;;;;3.30;2.97;;;23.60;72.10;;;;;;6104611;23;19998;-75
2023/09/05 06:43:15;;;;;;;3.83;2.88;;;;;;;;;;6105044;23;20085;-75
2023/09/05 06:45:41;;;;;;;3.15;2.67;;;;;;;;;;6105071;23;20438;-76
2023/09/05 06:48:08;;;;;;;2.88;2.50;;;;;;;;;;6095101;23;20077;-73
2023/09/05 06:50:34;;;;;;;2.90;2.70;;;;;;;;;;6104728;23;20006;-73
2023/09/05 06:53:00;;;;;;;2.55;2.35;;;;;;;;;;6095201;23;20408;-73
2023/09/05 06:55:28;;;;;;;2.90;2.70;;;;;;;;;;6095053;23;20032;-74
2023/09/05 06:57:56;;;;;;;2.08;1.90;;;;;;;;;;6095427;23;20433;-74
2023/09/05 07:00:25;;;;;;;2.20;2.00;;;;;;;;;;6095441;23;20025;-74
2023/09/05 07:02:52;;;;;;;2.10;1.98;;;;;;;;;;6094916;23;20010;-74
2023/09/05 07:05:18;;;;;;;2.20;2.00;;;;;;;;;;6095433;23;20365;-73
2023/09/05 07:07:45;;;;;;;1.70;1.60;;;;;;;;;;6094980;23;20050;-74
2023/09/05 07:10:13;;;;;;;2.17;1.80;;;;;;;;;;6094941;23;20014;-73
2023/09/05 07:12:39;;;;;;;1.50;1.40;;;;;;;;;;6095531;23;20334;-73
2023/09/05 07:15:06;;;;;;;1.70;1.48;;;;;;;;;;6095330;23;20002;-72
2023/09/05 07:17:32;;;;;;;1.77;1.67;;;;;;;;;;6095220;23;20070;-72
2023/09/05 07:19:59;;;;;;;1.30;1.20;;;;;;;;;;6094766;23;20007;-72
2023/09/05 07:22:25;;;;;;;3.10;1.48;;;;;;;;;;6095149;23;20068;-72
2023/09/05 07:24:51;;;;;;;1.42;1.33;;;;;;;;;;6104478;23;20110;-72
2023/09/05 07:27:17;;;;;;;1.52;1.40;;;;;;;;;;6105052;23;20007;-73
2023/09/05 07:29:44;;;;;;;1.38;1.27;;;;;;;;;;6095351;23;20426;-75
2023/09/05 07:32:11;;;;;;;2.03;1.45;;;;;;;;;;6094543;23;20069;-73
2023/09/05 07:34:37;;;;;;;1.48;1.25;;;;;;;;;;6094530;23;20061;-73
2023/09/05 07:37:03;;;;;;;1.35;1.23;;;;;;;;;;6104494;23;20481;-73
2023/09/05 07:39:30;;;;;;;1.42;1.33;;;;;;;;;;6094577;23;19998;-74
2023/09/05 07:41:56;;;;;;;2.58;1.35;;;;;;;;;;6094926;23;20093;-73
2023/09/05 07:44:23;;;;;;;1.30;1.20;;;;;;;;;;6094889;23;20438;-73
2023/09/05 07:46:49;;;;;;;1.15;1.10;;;;;;;;;;6094489;23;20017;-73
2023/09/05 07:49:16;;;;;;;1.73;1.63;;;;;;;;;;6094924;23;20005;-73
2023/09/05 07:51:42;;;;;;;1.38;1.17;;;;;;;;;;6095299;23;20007;-73
2023/09/05 07:54:14;;;;;;;1.35;1.10;;;;;;;;;;6096454;23;20067;-72
2023/09/05 07:56:55;;;;;;;1.25;1.10;;;;;;;;;;6094125;23;20069;-72
2023/09/05 07:59:23;;;;;;;1.63;1.25;;;;;;;;;;6096441;23;20006;-73
2023/09/05 08:01:49;;;;;;;3.25;1.48;;;;;;;;;;6096463;23;20018;-73
2023/09/05 08:04:15;;;;;;;2.67;1.42;;;;;;;;;;6096802;23;20366;-75
2023/09/05 08:06:42;;;;;;;2.85;1.48;;;;;;;;;;6096245;23;20089;-75
2023/09/05 08:09:08;;;;;;;4.25;1.40;;;;;;;;;;6096708;23;20458;-74
2023/09/05 08:11:34;;;;;;;3.30;1.40;;;;;;;;;;6106232;23;20040;-74
2023/09/05 08:14:01;;;;;;;1.42;1.27;;;;;;;;;;6096827;23;20025;-76
2023/09/05 08:16:27;;;;;;;2.03;1.30;;;;;;;;;;6101424;23;20061;-74
2023/09/05 08:18:54;;;;;;;1.80;1.52;;;;;;;;;;6096767;23;20013;-75
2023/09/05 08:21:21;;;;;;;1.77;1.50;;;;;;;;;;6096968;23;20334;-77
2023/09/05 08:23:50;;;;;;;2.83;1.45;;;;;;;;;;6106550;23;20049;-74
2023/09/05 08:26:17;;;;;;;2.13;1.30;;;;;;;;;;6106680;23;20059;-76
2023/09/05 08:28:45;;;;;;;2.90;1.90;;;;;;;;;;6106247;23;20003;-76
2023/09/05 08:31:11;;;;;;;2.08;1.80;;;;;;;;;;6096726;23;20039;-74
2023/09/05 08:33:37;;;;;;;4.18;1.98;;;;;;;;;;6106185;23;20087;-74
2023/09/05 08:36:08;;;;;;;1.70;1.48;;;24.10;69.10;;;;;;6080490;23;20406;-72
2023/09/05 08:38:35;;;;;;;2.33;1.88;;;;;;;;;;6106023;23;20003;-72
2023/09/05 08:41:01;;;;;;;2.47;1.77;;;;;;;;;;6106059;23;20001;-73
2023/09/05 08:43:28;;;;;;;3.85;2.20;;;24.00;72.90;;;;;;6105924;23;20058;-74
2023/09/05 08:45:54;;;;;;;1.77;1.52;;;24.10;73.00;;;;;;6105809;23;20002;-73
2023/09/05 08:48:20;;;;;;;2.20;1.80;;;;;;;;;;6105983;23;20478;-74
2023/09/05 08:50:48;;;;;;;2.83;1.88;;;24.10;74.80;;;;;;6105899;23;20078;-74
2023/09/05 08:53:15;;;;;;;1.88;1.60;;;24.20;74.70;;;;;;6106432;23;20041;-75
2023/09/05 08:55:43;;;;;;;2.55;1.88;;;;;;;;;;6096077;23;19995;-75
2023/09/05 08:58:13;;;;;;;2.20;1.80;;;24.30;75.20;;;;;;6096015;23;20003;-76
2023/09/05 09:00:39;;;;;;;2.17;1.75;;;;;;;;;;6070602;23;20349;-76
2023/09/05 09:03:08;;;;;;;3.17;1.80;;;24.40;72.80;;;;;;6105194;23;20093;-76
2023/09/05 09:05:36;;;;;;;2.87;1.80;;;;;;;;;;6070583;23;20010;-75
2023/09/05 09:08:02;;;;;;;2.75;1.70;;;;;;;;;;6105581;23;20077;-75
2023/09/05 09:10:28;;;;;;;2.30;1.35;;;;;;;;;;6105714;23;20113;-74
2023/09/05 09:13:12;;;;;;;2.00;1.50;;;24.40;75.00;;;;;;6096270;23;20050;-73
2023/09/05 09:15:40;;;;;;;2.63;2.00;;;24.60;75.20;;;;;;6105686;23;19998;-73
2023/09/05 09:18:11;;;;;;;3.15;1.80;;;23.70;74.60;;;;;;6096181;23;20533;-74
2023/09/05 09:20:42;;;;;;;1.92;1.60;;;24.60;75.90;;;;;;6095817;23;19998;-75
2023/09/05 09:23:09;;;;;;;1.98;1.73;;;;;;;;;;6096592;23;20026;-76
2023/09/05 09:25:35;;;;;;;2.65;1.80;;;;;;;;;;6096067;23;20339;-74
2023/09/05 09:28:02;;;;;;;1.58;1.48;;;;;;;;;;6095604;23;20017;-74
2023/09/05 09:30:30;;;;;;;2.88;1.52;;;24.70;74.30;;;;;;6096034;23;19998;-74
2023/09/05 09:32:56;;;;;;;2.00;1.60;;;;;;;;;;6096104;23;20006;-74
2023/09/05 09:35:23;;;;;;;2.67;1.95;;;;;;;;;;6095618;23;20078;-75
2023/09/05 09:37:50;;;;;;;1.90;1.70;;;;;;;;;;6095526;23;20002;-74
2023/09/05 09:40:17;;;;;;;2.00;1.77;;;;;;;;;;6095778;23;20010;-74
2023/09/05 09:42:48;;;;;;;2.15;1.95;;;25.10;68.70;;;;;;6095511;23;20030;-73
2023/09/05 09:45:16;;;;;;;2.08;1.60;;;25.10;74.20;;;;;;6095783;23;20007;-73
2023/09/05 09:47:47;;;;;;;1.98;1.75;;;25.30;73.70;;;;;;6105123;23;20022;-73
2023/09/05 09:50:14;;;;;;;3.45;1.70;;;;;;;;;;6105932;23;20009;-73
2023/09/05 09:52:44;;;;;;;3.30;2.10;;;25.40;74.40;;;;;;6105264;23;20434;-72
2023/09/05 09:55:13;;;;;;;2.38;1.80;;;25.50;74.10;;;;;;6105213;23;20138;-72
2023/09/05 09:57:55;;;;;;;1.90;1.48;;;25.50;74.00;;;;;;6105266;23;19998;-73
2023/09/05 10:00:21;;;;;;;2.97;1.60;;;;;;;;;;6105336;23;19999;-73
2023/09/05 10:02:49;;;;;;;2.95;1.67;;;;;;;;;;6104790;23;20010;-74
2023/09/05 10:05:16;;;;;;;1.88;1.60;;;25.80;71.80;;;;;;6104953;23;20446;-74
2023/09/05 10:07:43;;;;;;;1.67;1.58;;;;;;;;;;6104963;23;20018;-73
2023/09/05 10:10:15;;;;;;;3.00;1.73;;;25.80;68.10;;;;;;6095574;23;20002;-73
2023/09/05 10:12:46;;;;;;;1.95;1.63;;;25.80;68.10;;;;;;6095123;23;20069;-75
2023/09/05 10:15:15;;;;;;;;;;;25.90;74.10;;;;;;6095636;23;20002;-75
2023/09/05 10:17:42;;;;;;;3.95;1.58;;;26.00;74.00;;;;;;6095377;23;19908;-74
2023/09/05 10:20:14;;;;;;;2.38;1.70;;;26.00;70.60;;;;;;6095845;23;20378;-72
2023/09/05 10:22:44;;;;;;;3.00;1.70;;;26.20;73.20;;;;;;6095089;23;20032;-72
2023/09/05 10:25:28;;;;;;;2.55;1.90;;;26.20;73.00;;;;;;6092905;23;20014;-72
2023/09/05 10:27:55;;;;;;;2.10;1.80;;;;;;;;;;6094725;23;20342;-73
2023/09/05 10:30:21;;;;;;;3.75;1.80;;;26.40;72.80;;;;;;6095325;23;20101;-74
2023/09/05 10:32:49;;;;;;;2.15;1.88;;;;;;;;;;6094945;23;20073;-73
2023/09/05 10:35:19;;;;;;;3.85;1.70;;;26.50;67.10;;;;;;6095254;23;20057;-74
2023/09/05 10:38:01;;;;;;;2.90;1.73;;;26.60;66.80;;;;;;6094896;23;20007;-73
2023/09/05 10:40:40;;;;;;;1.60;1.50;;;26.70;67.20;;;;;;6095363;23;20322;-73
2023/09/05 10:43:08;;;;;;;2.00;1.58;;;26.70;72.80;;;;;;6094942;23;19998;-74
2023/09/05 10:45:36;;;;;;;2.63;1.70;;;26.80;71.50;;;;;;6095429;23;20074;-74
2023/09/05 10:48:30;;;;;;;4.53;1.88;;;26.90;66.70;;;;;;6105526;23;20334;-74
2023/09/05 10:51:13;;;;;;;3.50;1.80;;;27.00;66.50;;;;;;6104882;23;20003;-73
2023/09/05 10:53:41;;;;;;;1.80;1.70;;;27.30;72.70;;;;;;6104876;23;19998;-73
2023/09/05 10:56:43;;;;;;;4.40;1.75;;;27.10;66.30;;;;;;6104686;23;20457;-72
2023/09/05 10:59:11;;;;;;;2.00;1.90;;;27.20;72.00;;;;;;6104580;23;19998;-72
2023/09/05 11:01:37;;;;;;;1.95;1.73;;;;;;;;;;6104220;23;20418;-73
2023/09/05 11:04:07;;;;;;;2.47;1.60;;;27.40;70.80;;;;;;6104628;23;20005;-72
2023/09/05 11:06:37;;;;;;;1.92;1.40;;;27.50;71.70;;;;;;6104470;23;20010;-74
2023/09/05 11:09:06;;;;;;;3.42;1.65;;;27.40;66.10;;;;;;6104626;23;20021;-73
2023/09/05 11:11:36;;;;;;;2.05;1.60;;;27.50;69.90;;;;;;6095263;23;20045;-72
2023/09/05 11:14:03;;;;;;;2.00;1.48;;;27.60;68.40;;;;;;6094814;23;20101;-72
2023/09/05 11:16:46;;;;;;;1.63;1.52;;;27.70;71.70;;;;;;6095231;23;20375;-73
2023/09/05 11:19:12;;;;;;;4.82;1.90;;;;;;;;;;6104648;23;20001;-72
2023/09/05 11:21:38;;;;;;;2.35;1.50;;;;;;;;;;6104483;23;20003;-73
2023/09/05 11:24:04;;;;;;;1.75;1.52;;;;;;;;;;6104521;23;20437;-71
2023/09/05 11:26:30;;;;;;;2.25;1.50;;;;;;;;;;6104160;23;20037;-72
2023/09/05 11:28:56;;;;;;;1.92;1.73;;;;;;;;;;6104327;23;20450;-71
2023/09/05 11:31:22;;;;;;;1.40;1.30;;;;;;;;;;6104472;23;20002;-73
2023/09/05 11:33:48;;;;;;;1.77;1.40;;;;;;;;;;6104566;23;20005;-73
2023/09/05 11:36:15;;;;;;;1.50;1.38;;;;;;;;;;6104643;23;20026;-74
2023/09/05 11:38:48;;;;;;;2.30;1.70;;;28.40;65.40;;;;;;6104657;23;20025;-73
2023/09/05 11:41:14;;;;;;;2.17;1.80;;;;;;;;;;6104581;23;20002;-75
2023/09/05 11:43:56;;;;;;;1.50;1.25;;;28.40;65.40;;;;;;6104531;23;20053;-74
2023/09/05 11:46:22;;;;;;;1.95;1.75;;;28.60;67.70;;;;;;6104624;23;20109;-73
2023/09/05 11:48:50;;;;;;;1.50;1.40;;;28.60;71.20;;;;;;6104473;23;20441;-74
2023/09/05 11:51:16;;;;;;;1.60;1.42;;;;;;;;;;6104351;23;20005;-73
2023/09/05 11:53:43;;;;;;;2.40;1.60;;;28.80;69.50;;;;;;6105182;23;20054;-73
2023/09/05 11:56:10;;;;;;;1.73;1.63;;;28.80;68.80;;;;;;6104368;23;19998;-72
2023/09/05 11:58:37;;;;;;;4.43;1.67;;;;;;;;;;6094546;23;20081;-73
2023/09/05 12:01:04;;;;;;;2.13;1.80;;;;;;;;;;6094762;23;20003;-73
2023/09/05 12:03:36;;;;;;;2.13;1.70;;;29.00;70.10;;;;;;6094503;23;20022;-74
2023/09/05 12:06:02;;;;;;;1.83;1.33;;;;;;;;;;6095084;23;19999;-73
2023/09/05 12:08:30;;;;;;;1.40;1.30;;;;;;;;;;6094775;23;20007;-74
2023/09/05 12:10:57;;;;;;;1.73;1.60;;;;;;;;;;6094730;23;20009;-74
2023/09/05 12:13:39;;;;;;;2.35;1.40;;;29.30;64.10;;;;;;6095066;23;20011;-72
2023/09/05 12:16:09;;;;;;;1.67;1.58;;;29.30;63.80;;;;;;6095134;23;20014;-72
2023/09/05 12:18:37;;;;;;;1.88;1.60;;;29.40;67.10;;;;;;6094954;23;20117;-72
2023/09/05 12:21:04;;;;;;;1.77;1.35;;;;;;;;;;6095549;23;20006;-73
2023/09/05 12:23:31;;;;;;;1.63;1.52;;;;;;;;;;6094986;23;20003;-72
2023/09/05 12:25:57;;;;;;;3.13;1.70;;;;;;;;;;6094772;23;20326;-72
2023/09/05 12:28:27;;;;;;;1.50;1.40;;;29.70;69.10;;;;;;6094916;23;20069;-73
2023/09/05 12:31:14;;;;;;;2.67;1.40;;;29.60;68.70;;;;;;6095012;23;20066;-73
2023/09/05 12:33:41;;;;;;;2.50;1.63;;;29.70;68.80;;;;;;6095052;23;19998;-74
2023/09/05 12:36:07;;;;;;;2.00;1.40;;;;;;;;;;6094579;23;20481;-75
2023/09/05 12:38:34;;;;;;;1.55;1.40;;;;;;;;;;6095008;23;20093;-75
2023/09/05 12:41:01;;;;;;;2.40;1.38;;;;;;;;;;6096733;23;19998;-75
2023/09/05 12:43:27;;;;;;;2.88;1.50;;;;;;;;;;6106258;23;19998;-75
2023/09/05 12:45:54;;;;;;;1.67;1.55;;;;;;;;;;6105820;23;20002;-75
2023/09/05 12:48:19;;;;;;;3.78;1.27;;;;;;;;;;6105806;23;20014;-73
2023/09/05 12:50:48;;;;;;;3.00;1.50;;;;;;;;;;6106374;23;20006;-74
2023/09/05 12:53:17;;;;;;;1.38;1.20;;;;;;;;;;6095863;23;20006;-74
2023/09/05 12:55:44;;;;;;;2.38;1.52;;;;;;;;;;6096409;23;20058;-73
2023/09/05 12:58:10;;;;;;;1.40;1.30;;;;;;;;;;6095944;23;20014;-73
2023/09/05 13:00:37;;;;;;;2.60;1.30;;;;;;;;;;6096236;23;20002;-74
2023/09/05 13:03:06;;;;;;;1.08;1.00;;;30.40;64.50;;;;;;6095842;23;20034;-73
2023/09/05 13:05:32;;;;;;;2.60;1.52;;;;;;;;;;6096252;23;20346;-74
2023/09/05 13:08:00;;;;;;;1.90;1.25;;;30.40;67.10;;;;;;6096025;23;20346;-74
2023/09/05 13:10:27;;;;;;;1.88;1.60;;;;;;;;;;6095795;23;20045;-74
2023/09/05 13:12:53;;;;;;;1.65;1.50;;;;;;;;;;6105559;23;20006;-74
2023/09/05 13:15:19;;;;;;;1.40;1.20;;;;;;;;;;6105455;23;20005;-73
2023/09/05 13:17:46;;;;;;;1.33;1.17;;;;;;;;;;6106109;23;20006;-73
2023/09/05 13:20:14;;;;;;;2.25;1.38;;;;;;;;;;6105567;23;20002;-73
2023/09/05 13:22:44;;;;;;;1.42;1.33;;;;;;;;;;6105521;23;20065;-73
2023/09/05 13:25:10;;;;;;;1.50;1.40;;;;;;;;;;6105613;23;20046;-73
2023/09/05 13:27:36;;;;;;;1.45;1.10;;;;;;;;;;6105390;23;20006;-72
2023/09/05 13:30:05;;;;;;;2.35;1.38;;;;;;;;;;6105460;23;19998;-73
2023/09/05 13:32:31;;;;;;;2.17;1.10;;;;;;;;;;6105529;23;20010;-73
2023/09/05 13:34:57;;;;;;;2.50;1.30;;;;;;;;;;6105424;23;20001;-74
2023/09/05 13:37:23;;;;;;;2.33;1.30;;;;;;;;;;6105383;23;19998;-74
2023/09/05 13:39:49;;;;;;;1.60;1.20;;;;;;;;;;6105306;23;20481;-72
2023/09/05 13:42:16;;;;;;;1.98;1.45;;;;;;;;;;6105127;23;20025;-72
2023/09/05 13:44:42;;;;;;;1.35;1.25;;;;;;;;;;6105406;23;20005;-73
2023/09/05 13:47:08;;;;;;;2.55;1.05;;;;;;;;;;6105703;23;20342;-73
2023/09/05 13:49:34;;;;;;;3.60;1.40;;;;;;;;;;6104906;23;20009;-72
2023/09/05 13:52:00;;;;;;;3.17;1.25;;;;;;;;;;6105157;23;20096;-72
2023/09/05 13:54:26;;;;;;;1.67;1.30;;;;;;;;;;6105034;23;19995;-73
2023/09/05 13:56:52;;;;;;;1.45;0.98;;;;;;;;;;6105332;23;20048;-73
2023/09/05 13:59:18;;;;;;;1.05;0.95;;;;;;;;;;6105398;23;19999;-73
2023/09/05 14:01:44;;;;;;;2.25;1.15;;;;;;;;;;6105137;23;20013;-73
2023/09/05 14:04:10;;;;;;;1.55;1.45;;;;;;;;;;6105405;23;20126;-73
2023/09/05 14:06:37;;;;;;;1.75;1.25;;;;;;;;;;6105219;23;20069;-73
2023/09/05 14:09:03;;;;;;;1.50;1.40;;;;;;;;;;6105612;23;20045;-74
2023/09/05 14:11:29;;;;;;;1.58;1.15;;;;;;;;;;6105090;23;20006;-73
2023/09/05 14:13:55;;;;;;;2.33;1.38;;;;;;;;;;6105517;23;20002;-73
2023/09/05 14:16:21;;;;;;;1.48;1.20;;;;;;;;;;6105721;23;20009;-73